createdAt,value
2023-03-17T00:39:00.722Z,209.26
2023-03-17T00:43:00.692Z,209.58
2023-03-17T00:47:00.775Z,211.67
2023-03-17T00:51:00.697Z,206.06
2023-03-17T00:55:00.678Z,206.44
2023-03-17T00:59:00.727Z,207.92
2023-03-17T01:03:00.679Z,206.94
2023-03-17T01:07:00.638Z,206.73
2023-03-17T01:11:00.681Z,207.73
2023-03-17T01:15:00.705Z,207.73
2023-03-17T01:19:00.780Z,208.83
2023-03-17T01:23:00.712Z,206.72
2023-03-17T01:27:00.682Z,206.34
2023-03-17T01:31:00.700Z,207.06
2023-03-17T01:35:00.701Z,207.01
2023-03-17T01:39:00.708Z,206.05
2023-03-17T01:43:00.784Z,209.05
2023-03-17T01:47:00.756Z,210.85
2023-03-17T01:51:00.784Z,205.29
2023-03-17T01:55:00.774Z,207.24
2023-03-17T01:59:00.843Z,206.20
2023-03-17T02:03:00.870Z,207.30
2023-03-17T02:07:00.906Z,207.53
2023-03-17T02:11:00.982Z,206.09
2023-03-17T02:15:01.016Z,209.44
2023-03-17T02:19:01.103Z,211.00
2023-03-17T02:23:01.168Z,207.92
2023-03-17T02:27:01.213Z,209.42
2023-03-17T02:31:01.312Z,208.32
2023-03-17T02:35:01.281Z,206.03
2023-03-17T02:39:01.402Z,207.48
2023-03-17T02:43:01.451Z,209.37
2023-03-17T02:47:01.539Z,206.86
2023-03-17T02:51:01.494Z,209.32
2023-03-17T02:55:01.529Z,210.48
2023-03-17T02:59:01.640Z,210.23
2023-03-17T03:03:01.648Z,209.33
2023-03-17T03:07:01.721Z,208.55
2023-03-17T03:11:01.840Z,208.71
2023-03-17T03:15:02.313Z,206.12
2023-03-17T03:19:01.893Z,208.18
2023-03-17T03:23:01.948Z,208.04
2023-03-17T03:27:02.070Z,208.65
2023-03-17T03:31:02.173Z,206.86
2023-03-17T03:35:02.204Z,208.65
2023-03-17T03:39:02.346Z,206.29
2023-03-17T03:43:10.186Z,207.85
2023-03-17T03:47:03.372Z,206.00
2023-03-17T03:51:02.315Z,206.65
2023-03-17T03:55:02.264Z,207.09
2023-03-17T03:59:02.232Z,205.53
2023-03-17T04:03:02.244Z,204.41
2023-03-17T04:07:02.316Z,206.15
2023-03-17T04:11:02.400Z,205.66
2023-03-17T04:15:02.543Z,206.89
2023-03-17T04:19:02.740Z,204.17
2023-03-17T04:23:02.740Z,205.93
2023-03-17T04:27:05.489Z,206.82
2023-03-17T04:31:02.840Z,207.40
2023-03-17T04:35:02.846Z,205.40
2023-03-17T04:39:02.765Z,205.68
2023-03-17T04:43:03.622Z,204.83
2023-03-17T04:47:02.694Z,205.20
2023-03-17T04:51:02.637Z,205.56
2023-03-17T04:55:02.599Z,205.61
2023-03-17T04:59:02.562Z,204.45
2023-03-17T05:03:02.871Z,202.84
2023-03-17T05:07:02.557Z,171.92
2023-03-17T05:11:02.481Z,153.49
2023-03-17T05:15:02.401Z,136.69
2023-03-17T05:19:02.877Z,119.75
2023-03-17T05:23:02.329Z,104.60
2023-03-17T05:27:02.388Z,102.76
2023-03-17T05:31:02.463Z,98.95
2023-03-17T05:35:02.596Z,100.52
2023-03-17T05:39:02.683Z,111.34
2023-03-17T05:43:02.850Z,113.48
2023-03-17T05:47:03.012Z,120.33
2023-03-17T05:51:03.146Z,124.99
2023-03-17T05:55:03.240Z,130.75
2023-03-17T05:59:03.337Z,136.90
2023-03-17T06:03:03.427Z,140.50
2023-03-17T06:07:03.575Z,146.09
2023-03-17T06:11:03.574Z,149.48
2023-03-17T06:15:03.658Z,153.82
2023-03-17T06:19:03.790Z,157.79
2023-03-17T06:23:05.913Z,163.14
2023-03-17T06:27:03.999Z,163.35
2023-03-17T06:31:07.032Z,167.89
2023-03-17T06:35:03.999Z,125.96
2023-03-17T06:39:03.991Z,116.34
2023-03-17T06:43:03.885Z,102.71
2023-03-17T06:47:03.924Z,112.49
2023-03-17T06:51:03.848Z,124.34
2023-03-17T06:55:03.831Z,140.85
2023-03-17T06:59:03.788Z,153.00
2023-03-17T07:03:03.768Z,153.82
2023-03-17T07:07:03.761Z,154.54
2023-03-17T07:11:03.672Z,157.44
2023-03-17T07:15:03.601Z,150.13
2023-03-17T07:19:03.576Z,147.41
2023-03-17T07:23:03.553Z,147.44
2023-03-17T07:27:03.694Z,157.07
2023-03-17T07:31:03.673Z,144.79
2023-03-17T07:35:03.629Z,152.53
2023-03-17T07:39:03.554Z,129.20
2023-03-17T07:43:03.526Z,110.73
2023-03-17T07:47:03.490Z,114.09
2023-03-17T07:51:03.465Z,133.90
2023-03-17T07:55:03.405Z,153.73
2023-03-17T07:59:03.396Z,160.16
2023-03-17T08:03:10.380Z,167.66
2023-03-17T08:07:04.312Z,151.53
2023-03-17T08:11:03.333Z,149.90
2023-03-17T08:15:03.241Z,141.56
2023-03-17T08:19:03.164Z,134.94
2023-03-17T08:23:03.120Z,137.81
2023-03-17T08:27:03.056Z,141.16
2023-03-17T08:31:03.220Z,147.10
2023-03-17T08:35:03.150Z,145.52
2023-03-17T08:39:03.153Z,144.44
2023-03-17T08:43:03.067Z,136.82
2023-03-17T08:47:03.087Z,153.29
2023-03-17T08:51:03.017Z,165.30
2023-03-17T08:55:02.969Z,175.44
2023-03-17T08:59:02.923Z,176.49
2023-03-17T09:03:02.941Z,179.69
2023-03-17T09:07:04.349Z,183.19
2023-03-17T09:11:02.879Z,187.33
2023-03-17T09:15:02.781Z,194.04
2023-03-17T09:19:02.729Z,192.31
2023-03-17T09:23:02.730Z,197.17
2023-03-17T09:27:02.671Z,196.14
2023-03-17T09:31:02.679Z,197.70
2023-03-17T09:35:02.611Z,198.60
2023-03-17T09:39:02.546Z,200.10
2023-03-17T09:43:02.748Z,203.09
2023-03-17T09:47:02.685Z,204.21
2023-03-17T09:51:03.003Z,205.14
2023-03-17T09:55:02.581Z,207.75
2023-03-17T09:59:02.617Z,208.62
2023-03-17T10:03:02.594Z,210.00
2023-03-17T10:07:02.523Z,210.89
2023-03-17T10:11:02.468Z,211.74
2023-03-17T10:15:02.474Z,211.13
2023-03-17T10:19:02.481Z,211.14
2023-03-17T10:23:02.377Z,211.49
2023-03-17T10:27:02.320Z,205.80
2023-03-17T10:31:02.407Z,206.96
2023-03-17T10:35:02.284Z,209.78
2023-03-17T10:39:02.247Z,210.87
2023-03-17T10:43:02.175Z,201.79
2023-03-17T10:47:02.243Z,205.18
2023-03-17T10:51:02.154Z,203.81
2023-03-17T10:55:02.272Z,204.15
2023-03-17T10:59:02.550Z,201.22
2023-03-17T11:03:02.153Z,200.39
2023-03-17T11:07:02.227Z,199.82
2023-03-17T11:11:02.581Z,200.15
2023-03-17T11:15:02.085Z,198.08
2023-03-17T11:19:02.077Z,0.00
2023-03-17T11:23:02.135Z,0.00
2023-03-17T11:27:02.008Z,11.89
2023-03-17T11:31:01.910Z,64.34
2023-03-17T11:35:01.917Z,75.17
2023-03-17T11:39:01.894Z,53.31
2023-03-17T11:43:01.838Z,57.50
2023-03-17T11:47:01.900Z,76.98
2023-03-17T11:51:02.118Z,84.90
2023-03-17T11:55:02.134Z,20.38
2023-03-17T11:59:02.221Z,27.29
2023-03-17T12:03:02.430Z,9.27
2023-03-17T12:07:02.401Z,31.33
2023-03-17T12:11:02.522Z,28.84
2023-03-17T12:15:02.528Z,41.98
2023-03-17T12:19:02.628Z,69.15
2023-03-17T12:23:02.587Z,81.16
2023-03-17T12:27:02.740Z,110.61
2023-03-17T12:31:02.675Z,127.62
2023-03-17T12:35:02.798Z,127.05
2023-03-17T12:39:02.970Z,123.00
2023-03-17T12:43:02.926Z,112.83
2023-03-17T12:47:02.888Z,110.71
2023-03-17T12:51:02.879Z,109.22
2023-03-17T12:55:02.809Z,109.65
2023-03-17T12:59:02.798Z,111.85
2023-03-17T13:03:02.795Z,64.55
2023-03-17T13:07:02.741Z,74.16
2023-03-17T13:11:02.665Z,114.32
2023-03-17T13:15:02.669Z,131.86
2023-03-17T13:19:02.608Z,139.66
2023-03-17T13:23:02.585Z,147.83
2023-03-17T13:27:02.553Z,130.94
2023-03-17T13:31:02.490Z,117.34
2023-03-17T13:35:02.456Z,123.33
2023-03-17T13:39:18.139Z,114.96
2023-03-17T13:43:03.547Z,115.53
2023-03-17T13:47:02.568Z,113.47
2023-03-17T13:51:02.488Z,113.46
2023-03-17T13:55:02.425Z,118.76
2023-03-17T13:59:02.528Z,124.21
2023-03-17T14:03:02.528Z,119.71
2023-03-17T14:07:02.469Z,114.51
2023-03-17T14:11:02.440Z,99.64
2023-03-17T14:15:02.451Z,118.25
2023-03-17T14:19:02.501Z,123.14
2023-03-17T14:23:02.524Z,126.04
2023-03-17T14:27:02.549Z,134.80
2023-03-17T14:31:02.574Z,121.45
2023-03-17T14:35:02.614Z,128.93
2023-03-17T14:39:02.615Z,126.26
2023-03-17T14:43:02.619Z,138.05
2023-03-17T14:47:02.600Z,135.24
2023-03-17T14:51:02.583Z,147.49
2023-03-17T14:55:02.587Z,156.22
2023-03-17T14:59:02.562Z,151.18
2023-03-17T15:03:02.568Z,165.31
2023-03-17T15:07:02.642Z,157.85
2023-03-17T15:11:02.645Z,158.69
2023-03-17T15:15:02.674Z,159.98
2023-03-17T15:19:02.712Z,156.75
2023-03-17T15:23:02.735Z,157.46
2023-03-17T15:27:02.759Z,165.63
2023-03-17T15:31:02.886Z,180.60
2023-03-17T15:35:02.869Z,192.85
2023-03-17T15:39:02.941Z,192.14
2023-03-17T15:43:02.988Z,204.77
2023-03-17T15:47:03.065Z,197.87
2023-03-17T15:51:03.116Z,207.91
2023-03-17T15:55:05.094Z,209.99
2023-03-17T15:59:03.049Z,216.95
2023-03-17T16:03:02.972Z,221.43
2023-03-17T16:07:02.968Z,222.58
2023-03-17T16:11:02.906Z,224.11
2023-03-17T16:15:10.353Z,229.58
2023-03-17T16:19:03.801Z,231.27
2023-03-17T16:23:02.816Z,233.26
2023-03-17T16:27:02.752Z,234.10
2023-03-17T16:31:02.787Z,235.57
2023-03-17T16:35:02.754Z,235.92
2023-03-17T16:39:02.883Z,234.01
2023-03-17T16:43:03.942Z,232.97
2023-03-17T16:47:03.156Z,233.77
2023-03-17T16:51:02.906Z,235.83
2023-03-17T16:55:02.884Z,239.78
2023-03-17T16:59:02.925Z,237.04
2023-03-17T17:03:02.912Z,238.42
2023-03-17T17:07:02.882Z,237.00
2023-03-17T17:11:02.740Z,240.42
2023-03-17T17:15:02.736Z,240.74
2023-03-17T17:19:02.745Z,239.79
2023-03-17T17:23:02.795Z,237.56
2023-03-17T17:27:02.905Z,240.02
2023-03-17T17:31:03.149Z,240.10
2023-03-17T17:35:03.071Z,244.58
2023-03-17T17:39:03.020Z,245.07
2023-03-17T17:43:03.015Z,242.58
2023-03-17T17:47:02.994Z,242.89
2023-03-17T17:51:02.902Z,242.78
2023-03-17T17:55:02.888Z,244.03
2023-03-17T17:59:02.849Z,243.73
2023-03-17T18:03:02.841Z,242.95
2023-03-17T18:07:02.824Z,244.67
2023-03-17T18:11:02.835Z,243.80
2023-03-17T18:15:03.054Z,241.60
2023-03-17T18:19:03.099Z,240.93
2023-03-17T18:23:03.023Z,242.05
2023-03-17T18:27:02.944Z,240.52
2023-03-17T18:31:02.918Z,243.03
2023-03-17T18:35:02.888Z,236.44
2023-03-17T18:39:02.831Z,248.96
2023-03-17T18:43:02.810Z,227.87
2023-03-17T18:47:02.781Z,206.67
2023-03-17T18:51:02.746Z,198.72
2023-03-17T18:55:02.715Z,178.06
2023-03-17T18:59:02.692Z,172.43
2023-03-17T19:03:02.883Z,163.07
2023-03-17T19:07:02.962Z,153.72
2023-03-17T19:11:03.297Z,146.53
2023-03-17T19:15:03.194Z,183.90
2023-03-17T19:19:03.172Z,184.75
2023-03-17T19:23:03.176Z,186.36
2023-03-17T19:27:03.178Z,194.20
2023-03-17T19:31:03.222Z,202.68
2023-03-17T19:35:03.160Z,209.47
2023-03-17T19:39:03.197Z,217.23
2023-03-17T19:43:03.193Z,223.76
2023-03-17T19:47:03.114Z,231.12
2023-03-17T19:51:03.086Z,234.39
2023-03-17T19:55:03.126Z,235.09
2023-03-17T19:59:03.093Z,242.67
2023-03-17T20:03:03.083Z,241.19
2023-03-17T20:07:03.056Z,247.52
2023-03-17T20:11:03.019Z,246.25
2023-03-17T20:15:03.035Z,249.46
2023-03-17T20:19:03.043Z,248.23
2023-03-17T20:23:03.000Z,249.85
2023-03-17T20:27:03.017Z,249.84
2023-03-17T20:31:03.188Z,249.02
2023-03-17T20:35:03.008Z,249.38
2023-03-17T20:39:02.969Z,249.56
2023-03-17T20:43:02.964Z,247.68
2023-03-17T20:47:02.947Z,248.59
2023-03-17T20:51:02.972Z,249.50
2023-03-17T20:55:02.989Z,248.80
2023-03-17T20:59:03.059Z,249.87
2023-03-17T21:03:03.086Z,249.08
2023-03-17T21:07:03.098Z,248.27
2023-03-17T21:11:03.123Z,248.19
2023-03-17T21:15:03.209Z,247.93
2023-03-17T21:19:03.265Z,248.19
2023-03-17T21:23:03.383Z,249.56
2023-03-17T21:27:03.432Z,250.00
2023-03-17T21:31:03.500Z,248.42
2023-03-17T21:35:03.592Z,248.12
2023-03-17T21:39:03.602Z,248.29
2023-03-17T21:43:03.605Z,249.08
2023-03-17T21:47:03.750Z,248.13
2023-03-17T21:51:03.789Z,248.37
2023-03-17T21:55:03.916Z,249.13
2023-03-17T21:59:04.022Z,249.41
2023-03-17T22:03:04.436Z,247.70
2023-03-17T22:07:04.262Z,248.59
2023-03-17T22:11:04.360Z,248.26
2023-03-17T22:15:04.517Z,249.01
2023-03-17T22:19:04.584Z,247.64
2023-03-17T22:23:04.632Z,247.10
2023-03-17T22:27:04.679Z,249.35
2023-03-17T22:31:04.753Z,248.70
2023-03-17T22:35:04.864Z,246.99
2023-03-17T22:39:04.970Z,247.81
2023-03-17T22:43:05.117Z,247.48
2023-03-17T22:47:05.123Z,247.50
2023-03-17T22:51:05.179Z,247.40
2023-03-17T22:55:05.267Z,248.33
2023-03-17T22:59:05.304Z,246.82
2023-03-17T23:03:05.337Z,246.61
2023-03-17T23:07:05.466Z,247.21
2023-03-17T23:11:05.518Z,248.04
2023-03-17T23:15:05.707Z,246.42
2023-03-17T23:19:05.753Z,246.80
2023-03-17T23:23:05.878Z,248.65
2023-03-17T23:27:05.980Z,245.58
2023-03-17T23:31:06.198Z,247.64
2023-03-17T23:35:06.239Z,245.08
2023-03-17T23:39:06.391Z,246.14
2023-03-17T23:43:06.547Z,244.91
2023-03-17T23:47:06.730Z,246.26
2023-03-17T23:51:06.751Z,245.45
2023-03-17T23:55:07.020Z,246.61
2023-03-17T23:59:07.073Z,244.45
